createdAt,value
2022-12-03T00:00:12.609Z,84.06
2022-12-03T00:03:00.759Z,83.83
2022-12-03T00:05:28.358Z,83.58
2022-12-03T00:07:55.886Z,83.84
2022-12-03T00:10:23.120Z,83.56
2022-12-03T00:12:50.635Z,83.84
2022-12-03T00:15:17.928Z,84.06
2022-12-03T00:17:45.392Z,83.79
2022-12-03T00:20:21.248Z,83.57
2022-12-03T00:22:49.246Z,83.53
2022-12-03T00:25:17.244Z,83.70
2022-12-03T00:27:45.262Z,83.56
2022-12-03T00:30:14.129Z,83.51
2022-12-03T00:32:41.676Z,83.51
2022-12-03T00:35:09.726Z,83.62
2022-12-03T00:37:37.323Z,83.93
2022-12-03T00:40:07.201Z,83.57
2022-12-03T00:42:34.704Z,84.06
2022-12-03T00:45:01.995Z,84.52
2022-12-03T00:47:29.449Z,85.42
2022-12-03T00:49:56.689Z,85.21
2022-12-03T00:52:24.156Z,85.37
2022-12-03T00:54:51.838Z,85.19
2022-12-03T00:57:19.584Z,84.68
2022-12-03T00:59:46.751Z,84.93
2022-12-03T01:02:14.321Z,84.62
2022-12-03T01:04:42.335Z,84.57
2022-12-03T01:07:09.976Z,84.51
2022-12-03T01:09:37.291Z,84.21
2022-12-03T01:12:04.941Z,84.01
2022-12-03T01:14:32.200Z,83.61
2022-12-03T01:16:59.644Z,83.69
2022-12-03T01:19:26.998Z,83.66
2022-12-03T01:21:55.650Z,83.65
2022-12-03T01:24:22.886Z,83.91
2022-12-03T01:26:50.378Z,84.18
2022-12-03T01:29:17.616Z,84.16
2022-12-03T01:32:03.603Z,84.10
2022-12-03T01:34:30.802Z,84.14
2022-12-03T01:36:58.364Z,84.03
2022-12-03T01:39:25.610Z,84.04
2022-12-03T01:41:55.412Z,84.34
2022-12-03T01:44:27.458Z,84.33
2022-12-03T01:46:58.758Z,84.37
2022-12-03T01:49:42.572Z,83.83
2022-12-03T01:52:23.054Z,83.89
2022-12-03T01:55:00.566Z,83.78
2022-12-03T01:57:43.865Z,83.48
2022-12-03T02:00:18.842Z,84.00
2022-12-03T02:02:50.744Z,84.16
2022-12-03T02:05:23.241Z,84.21
2022-12-03T02:07:51.145Z,84.45
2022-12-03T02:10:31.441Z,84.26
2022-12-03T02:13:07.156Z,84.22
2022-12-03T02:15:36.056Z,84.15
2022-12-03T02:18:03.981Z,84.21
2022-12-03T02:20:35.932Z,83.55
2022-12-03T02:23:24.682Z,83.86
2022-12-03T02:25:52.034Z,83.76
2022-12-03T02:28:19.538Z,83.82
2022-12-03T02:30:46.833Z,83.63
2022-12-03T02:33:14.645Z,83.76
2022-12-03T02:35:42.020Z,83.55
2022-12-03T02:38:29.963Z,83.55
2022-12-03T02:41:04.851Z,83.46
2022-12-03T02:43:32.767Z,83.28
2022-12-03T02:46:02.649Z,83.28
2022-12-03T02:48:38.545Z,83.14
2022-12-03T02:51:10.224Z,83.10
2022-12-03T02:53:50.246Z,83.23
2022-12-03T02:56:22.899Z,83.85
2022-12-03T02:58:56.661Z,83.86
2022-12-03T03:01:24.351Z,83.81
2022-12-03T03:03:53.156Z,84.05
2022-12-03T03:06:22.036Z,84.00
2022-12-03T03:08:51.099Z,84.21
2022-12-03T03:11:18.654Z,84.23
2022-12-03T03:13:46.576Z,84.19
2022-12-03T03:16:13.958Z,84.28
2022-12-03T03:18:42.172Z,84.54
2022-12-03T03:21:09.659Z,84.26
2022-12-03T03:23:37.095Z,84.44
2022-12-03T03:26:12.251Z,84.59
2022-12-03T03:28:47.536Z,84.31
2022-12-03T03:31:19.586Z,84.40
2022-12-03T03:33:50.184Z,84.47
2022-12-03T03:36:18.222Z,84.49
2022-12-03T03:38:47.206Z,84.46
2022-12-03T03:41:16.092Z,84.32
2022-12-03T03:43:45.653Z,84.65
2022-12-03T03:46:14.660Z,84.85
2022-12-03T03:48:43.697Z,85.32
2022-12-03T03:51:12.587Z,85.39
2022-12-03T03:53:44.636Z,85.44
2022-12-03T03:56:12.776Z,85.29
2022-12-03T03:58:40.147Z,85.20
2022-12-03T04:01:09.260Z,85.23
2022-12-03T04:03:36.930Z,84.95
2022-12-03T04:06:04.704Z,84.63
2022-12-03T04:08:32.861Z,84.70
2022-12-03T04:11:18.655Z,84.33
2022-12-03T04:13:45.932Z,84.79
2022-12-03T04:16:13.396Z,85.09
2022-12-03T04:18:43.350Z,85.05
2022-12-03T04:21:36.135Z,85.41
2022-12-03T04:24:05.191Z,85.96
2022-12-03T04:26:51.758Z,86.24
2022-12-03T04:29:20.485Z,85.86
2022-12-03T04:32:06.568Z,85.48
2022-12-03T04:34:53.185Z,85.70
2022-12-03T04:37:20.931Z,85.89
2022-12-03T04:39:48.259Z,86.07
2022-12-03T04:42:15.908Z,86.44
2022-12-03T04:44:43.365Z,86.79
2022-12-03T04:47:18.301Z,86.97
2022-12-03T04:49:49.423Z,86.86
2022-12-03T04:52:19.983Z,86.48
2022-12-03T04:54:47.468Z,86.60
2022-12-03T04:57:15.087Z,86.39
2022-12-03T04:59:42.328Z,86.61
2022-12-03T05:02:10.009Z,86.60
2022-12-03T05:04:37.411Z,86.23
2022-12-03T05:07:05.000Z,86.59
2022-12-03T05:09:32.432Z,86.41
2022-12-03T05:12:00.000Z,85.91
2022-12-03T05:14:27.210Z,85.67
2022-12-03T05:16:54.738Z,86.36
2022-12-03T05:19:41.943Z,86.34
2022-12-03T05:22:09.424Z,85.89
2022-12-03T05:24:36.591Z,86.36
2022-12-03T05:27:04.211Z,86.39
2022-12-03T05:29:31.338Z,86.96
2022-12-03T05:31:58.871Z,86.86
2022-12-03T05:34:26.000Z,86.65
2022-12-03T05:36:53.411Z,86.92
2022-12-03T05:39:20.609Z,87.31
2022-12-03T05:42:06.407Z,87.22
2022-12-03T05:44:33.593Z,87.56
2022-12-03T05:47:01.023Z,87.58
2022-12-03T05:49:28.164Z,88.24
2022-12-03T05:51:58.599Z,87.69
2022-12-03T05:54:26.431Z,87.38
2022-12-03T05:56:53.960Z,88.01
2022-12-03T05:59:21.381Z,88.33
2022-12-03T06:01:48.878Z,88.44
2022-12-03T06:04:16.036Z,88.15
2022-12-03T06:06:43.615Z,88.14
2022-12-03T06:09:10.846Z,88.15
2022-12-03T06:11:40.019Z,88.12
2022-12-03T06:14:08.056Z,88.05
2022-12-03T06:16:35.685Z,87.96
2022-12-03T06:19:02.973Z,87.69
2022-12-03T06:21:30.386Z,87.51
2022-12-03T06:23:57.527Z,87.67
2022-12-03T06:26:25.016Z,87.67
2022-12-03T06:28:52.532Z,87.63
2022-12-03T06:31:20.107Z,87.36
2022-12-03T06:33:47.550Z,87.54
2022-12-03T06:36:17.807Z,87.70
2022-12-03T06:38:48.624Z,87.45
2022-12-03T06:41:16.051Z,87.31
2022-12-03T06:43:43.336Z,87.31
2022-12-03T06:46:10.936Z,87.34
2022-12-03T06:48:39.800Z,87.02
2022-12-03T06:51:07.242Z,87.18
2022-12-03T06:53:34.446Z,87.06
2022-12-03T06:56:01.904Z,87.19
2022-12-03T06:58:29.155Z,87.27
2022-12-03T07:00:56.603Z,87.41
2022-12-03T07:03:23.847Z,87.78
2022-12-03T07:05:51.333Z,87.91
2022-12-03T07:08:18.521Z,88.03
2022-12-03T07:10:46.116Z,87.75
2022-12-03T07:13:13.238Z,87.20
2022-12-03T07:15:40.786Z,87.18
2022-12-03T07:18:08.139Z,87.28
2022-12-03T07:20:35.594Z,87.30
2022-12-03T07:23:02.800Z,86.93
2022-12-03T07:25:30.509Z,87.37
2022-12-03T07:27:57.682Z,87.69
2022-12-03T07:30:25.788Z,87.81
2022-12-03T07:32:52.919Z,87.80
2022-12-03T07:35:20.368Z,87.74
2022-12-03T07:37:47.875Z,87.22
2022-12-03T07:40:15.599Z,87.10
2022-12-03T07:42:42.769Z,87.36
2022-12-03T07:45:11.032Z,87.31
2022-12-03T07:47:38.213Z,87.22
2022-12-03T07:50:06.571Z,86.67
2022-12-03T07:52:33.784Z,86.44
2022-12-03T07:55:01.218Z,86.09
2022-12-03T07:57:28.461Z,86.05
2022-12-03T07:59:55.901Z,85.79
2022-12-03T08:02:23.143Z,85.28
2022-12-03T08:04:51.188Z,85.27
2022-12-03T08:07:18.527Z,85.43
2022-12-03T08:09:46.262Z,85.48
2022-12-03T08:12:40.318Z,85.66
2022-12-03T08:15:11.507Z,86.25
2022-12-03T08:17:42.528Z,85.91
2022-12-03T08:20:20.361Z,86.59
2022-12-03T08:22:51.057Z,86.54
2022-12-03T08:25:32.159Z,87.32
2022-12-03T08:28:20.836Z,86.74
2022-12-03T08:31:01.579Z,86.52
2022-12-03T08:33:35.387Z,86.63
2022-12-03T08:36:29.317Z,86.46
2022-12-03T08:39:07.235Z,86.31
2022-12-03T08:41:55.156Z,85.79
2022-12-03T08:44:38.592Z,86.50
2022-12-03T08:47:24.454Z,86.78
2022-12-03T08:50:00.328Z,87.00
2022-12-03T08:52:33.304Z,86.85
2022-12-03T08:55:33.754Z,86.76
2022-12-03T08:58:16.416Z,86.28
2022-12-03T09:00:44.551Z,86.10
2022-12-03T09:03:19.422Z,85.49
2022-12-03T09:05:46.636Z,84.67
2022-12-03T09:08:14.161Z,84.54
2022-12-03T09:10:41.400Z,84.26
2022-12-03T09:13:09.313Z,83.90
2022-12-03T09:15:36.451Z,83.42
2022-12-03T09:18:04.149Z,82.49
2022-12-03T09:20:31.373Z,82.26
2022-12-03T09:22:58.845Z,81.93
2022-12-03T09:25:26.022Z,81.95
2022-12-03T09:27:53.741Z,81.75
2022-12-03T09:30:21.002Z,80.82
2022-12-03T09:32:48.589Z,81.19
2022-12-03T09:35:16.007Z,80.79
2022-12-03T09:37:43.684Z,80.11
2022-12-03T09:40:12.111Z,80.08
2022-12-03T09:42:40.015Z,79.79
2022-12-03T09:45:12.354Z,79.69
2022-12-03T09:47:50.676Z,79.21
2022-12-03T09:50:26.541Z,79.52
2022-12-03T09:52:58.574Z,79.10
2022-12-03T09:55:28.772Z,79.07
2022-12-03T09:57:57.703Z,79.14
2022-12-03T10:00:30.037Z,78.88
2022-12-03T10:03:02.598Z,78.07
2022-12-03T10:05:30.302Z,77.82
2022-12-03T10:08:08.477Z,77.73
2022-12-03T10:10:39.185Z,77.80
2022-12-03T10:13:10.856Z,77.51
2022-12-03T10:15:38.294Z,77.59
2022-12-03T10:18:30.795Z,78.30
2022-12-03T10:20:58.781Z,78.54
2022-12-03T10:23:31.475Z,79.04
2022-12-03T10:26:04.161Z,79.37
2022-12-03T10:28:40.042Z,80.24
2022-12-03T10:31:12.987Z,80.40
2022-12-03T10:33:45.265Z,80.75
2022-12-03T10:36:23.369Z,81.25
2022-12-03T10:39:16.517Z,80.80
2022-12-03T10:41:45.086Z,80.01
2022-12-03T10:44:30.600Z,79.65
2022-12-03T10:47:14.027Z,79.25
2022-12-03T10:49:42.756Z,78.91
2022-12-03T10:52:30.320Z,79.04
2022-12-03T10:54:58.208Z,79.40
2022-12-03T10:57:25.798Z,79.26
2022-12-03T10:59:53.324Z,78.58
2022-12-03T11:02:24.463Z,78.39
2022-12-03T11:04:52.838Z,78.61
2022-12-03T11:07:22.341Z,78.55
2022-12-03T11:09:54.790Z,78.00
2022-12-03T11:12:28.846Z,78.23
2022-12-03T11:14:57.624Z,78.82
2022-12-03T11:17:43.174Z,78.52
2022-12-03T11:20:33.685Z,79.09
2022-12-03T11:23:00.915Z,79.50
2022-12-03T11:25:28.361Z,79.42
2022-12-03T11:28:13.608Z,79.46
2022-12-03T11:30:50.655Z,78.84
2022-12-03T11:33:21.743Z,78.39
2022-12-03T11:36:04.529Z,78.18
2022-12-03T11:38:37.943Z,77.79
2022-12-03T11:41:13.111Z,77.10
2022-12-03T11:43:52.276Z,76.63
2022-12-03T11:46:36.389Z,75.14
2022-12-03T11:49:32.788Z,74.90
2022-12-03T11:52:11.387Z,75.67
2022-12-03T11:54:38.679Z,75.20
2022-12-03T11:57:27.750Z,75.34
2022-12-03T12:00:09.391Z,74.29
2022-12-03T12:02:36.951Z,73.95
2022-12-03T12:05:27.628Z,73.61
2022-12-03T12:07:56.343Z,74.04
2022-12-03T12:10:43.879Z,74.19
2022-12-03T12:13:34.052Z,74.97
2022-12-03T12:16:06.961Z,75.33
2022-12-03T12:18:45.796Z,75.64
2022-12-03T12:21:50.821Z,76.20
2022-12-03T12:24:54.204Z,76.45
2022-12-03T12:27:36.459Z,76.73
2022-12-03T12:30:19.909Z,76.62
2022-12-03T12:33:07.123Z,76.89
2022-12-03T12:35:34.646Z,78.06
2022-12-03T12:38:07.635Z,78.70
2022-12-03T12:40:38.747Z,78.87
2022-12-03T12:43:15.253Z,79.27
2022-12-03T12:45:45.620Z,79.10
2022-12-03T12:48:28.975Z,80.11
2022-12-03T12:51:19.442Z,81.45
2022-12-03T12:53:47.136Z,81.21
2022-12-03T12:56:32.185Z,81.64
2022-12-03T12:59:14.465Z,81.93
2022-12-03T13:01:44.941Z,82.57
2022-12-03T13:04:22.706Z,82.86
2022-12-03T13:06:54.035Z,82.45
2022-12-03T13:09:26.484Z,82.46
2022-12-03T13:12:03.935Z,82.53
2022-12-03T13:14:35.944Z,82.75
2022-12-03T13:17:18.441Z,83.00
2022-12-03T13:19:49.466Z,83.27
2022-12-03T13:22:23.085Z,83.01
2022-12-03T13:24:52.619Z,83.06
2022-12-03T13:27:20.102Z,83.56
2022-12-03T13:29:55.257Z,83.75
2022-12-03T13:32:34.224Z,83.74
2022-12-03T13:35:13.293Z,84.25
2022-12-03T13:37:40.861Z,84.57
2022-12-03T13:40:30.695Z,84.75
2022-12-03T13:42:59.539Z,84.99
2022-12-03T13:45:38.924Z,85.19
2022-12-03T13:48:25.689Z,85.76
2022-12-03T13:50:53.608Z,86.08
2022-12-03T13:53:34.944Z,86.59
2022-12-03T13:56:31.259Z,87.47
2022-12-03T13:59:01.309Z,88.67
2022-12-03T14:01:29.115Z,88.54
2022-12-03T14:03:57.119Z,87.88
2022-12-03T14:06:24.394Z,88.05
2022-12-03T14:08:51.897Z,88.40
2022-12-03T14:11:37.828Z,88.96
2022-12-03T14:14:05.472Z,89.13
2022-12-03T14:16:32.711Z,89.07
2022-12-03T14:19:00.316Z,89.19
2022-12-03T14:21:27.467Z,88.96
2022-12-03T14:23:54.925Z,89.58
2022-12-03T14:26:22.059Z,89.23
2022-12-03T14:28:49.535Z,89.67
2022-12-03T14:31:16.942Z,89.29
2022-12-03T14:33:44.446Z,89.25
2022-12-03T14:36:11.809Z,89.89
2022-12-03T14:38:39.351Z,90.01
2022-12-03T14:41:26.638Z,90.03
2022-12-03T14:43:54.066Z,89.92
2022-12-03T14:46:21.314Z,90.25
2022-12-03T14:48:48.749Z,90.33
2022-12-03T14:51:15.975Z,91.10
2022-12-03T14:53:43.419Z,91.72
2022-12-03T14:56:10.603Z,91.48
2022-12-03T14:58:38.473Z,91.58
2022-12-03T15:01:06.038Z,91.49
2022-12-03T15:03:33.589Z,91.41
2022-12-03T15:06:00.838Z,91.81
2022-12-03T15:08:28.949Z,91.71
2022-12-03T15:10:56.391Z,92.59
2022-12-03T15:13:23.851Z,92.63
2022-12-03T15:15:51.153Z,92.33
2022-12-03T15:18:18.830Z,92.66
2022-12-03T15:20:46.126Z,92.75
2022-12-03T15:23:14.745Z,93.12
2022-12-03T15:25:42.286Z,93.64
2022-12-03T15:28:10.179Z,93.61
2022-12-03T15:30:37.398Z,93.25
2022-12-03T15:33:05.396Z,92.68
2022-12-03T15:35:33.743Z,92.42
2022-12-03T15:38:01.443Z,92.49
2022-12-03T15:40:28.714Z,92.21
2022-12-03T15:42:56.232Z,91.76
2022-12-03T15:45:23.385Z,92.06
2022-12-03T15:47:50.863Z,92.67
2022-12-03T15:50:18.243Z,92.81
2022-12-03T15:52:45.705Z,93.38
2022-12-03T15:55:13.128Z,93.32
2022-12-03T15:57:40.743Z,93.30
2022-12-03T16:00:10.539Z,93.21
2022-12-03T16:02:38.123Z,92.91
2022-12-03T16:05:09.923Z,92.83
2022-12-03T16:07:38.218Z,93.12
2022-12-03T16:10:08.478Z,93.09
2022-12-03T16:12:36.035Z,93.45
2022-12-03T16:15:03.721Z,93.14
2022-12-03T16:17:31.144Z,93.05
2022-12-03T16:19:58.360Z,93.15
2022-12-03T16:22:25.794Z,92.98
2022-12-03T16:24:52.933Z,93.24
2022-12-03T16:27:25.302Z,93.82
2022-12-03T16:29:53.413Z,93.58
2022-12-03T16:32:21.190Z,93.32
2022-12-03T16:34:48.425Z,93.59
2022-12-03T16:37:16.081Z,93.29
2022-12-03T16:39:43.295Z,93.40
2022-12-03T16:42:16.961Z,93.75
2022-12-03T16:45:14.181Z,93.81
2022-12-03T16:47:41.678Z,93.79
2022-12-03T16:50:15.856Z,93.88
2022-12-03T16:52:47.621Z,94.03
2022-12-03T16:55:14.838Z,93.94
2022-12-03T16:57:42.304Z,94.15
2022-12-03T17:00:10.276Z,94.46
2022-12-03T17:02:37.759Z,94.43
2022-12-03T17:05:05.415Z,94.32
2022-12-03T17:07:32.963Z,94.09
2022-12-03T17:10:00.275Z,94.54
2022-12-03T17:12:42.306Z,93.90
2022-12-03T17:15:15.349Z,93.57
2022-12-03T17:17:42.961Z,93.95
2022-12-03T17:20:12.603Z,93.60
2022-12-03T17:22:41.545Z,93.07
2022-12-03T17:25:10.509Z,93.59
2022-12-03T17:27:43.543Z,93.59
2022-12-03T17:30:13.621Z,94.04
2022-12-03T17:32:41.427Z,94.76
2022-12-03T17:35:10.675Z,94.75
2022-12-03T17:37:38.552Z,94.49
2022-12-03T17:40:08.847Z,94.22
2022-12-03T17:42:36.428Z,94.60
2022-12-03T17:45:04.109Z,94.40
2022-12-03T17:47:31.780Z,94.43
2022-12-03T17:49:59.030Z,94.54
2022-12-03T17:52:26.547Z,94.47
2022-12-03T17:55:12.212Z,94.47
2022-12-03T17:57:41.444Z,94.23
2022-12-03T18:00:09.664Z,93.98
2022-12-03T18:02:37.218Z,94.08
2022-12-03T18:05:04.781Z,94.00
2022-12-03T18:07:32.885Z,94.16
2022-12-03T18:10:00.255Z,94.30
2022-12-03T18:12:27.884Z,94.53
2022-12-03T18:14:55.223Z,94.96
2022-12-03T18:17:22.737Z,95.16
2022-12-03T18:19:49.987Z,95.45
2022-12-03T18:22:17.914Z,95.31
2022-12-03T18:24:47.536Z,95.51
2022-12-03T18:27:17.838Z,95.19
2022-12-03T18:29:45.171Z,94.86
2022-12-03T18:32:27.689Z,94.92
2022-12-03T18:34:56.620Z,95.11
2022-12-03T18:37:28.759Z,95.25
2022-12-03T18:39:58.755Z,95.49
2022-12-03T18:42:27.187Z,95.99
2022-12-03T18:44:56.522Z,96.29
2022-12-03T18:47:28.912Z,95.71
2022-12-03T18:49:57.760Z,95.41
2022-12-03T18:52:25.621Z,94.46
2022-12-03T18:54:53.371Z,93.95
2022-12-03T18:57:20.831Z,94.35
2022-12-03T18:59:48.116Z,94.08
2022-12-03T19:03:01.999Z,93.96
2022-12-03T19:05:10.730Z,93.40
2022-12-03T19:07:38.542Z,93.73
2022-12-03T19:10:06.664Z,93.97
2022-12-03T19:12:34.463Z,93.85
2022-12-03T19:15:02.925Z,94.15
2022-12-03T19:17:30.557Z,94.33
2022-12-03T19:19:58.221Z,94.02
2022-12-03T19:22:25.842Z,93.43
2022-12-03T19:24:53.188Z,93.69
2022-12-03T19:27:20.727Z,93.34
2022-12-03T19:29:51.123Z,93.58
2022-12-03T19:32:18.622Z,93.41
2022-12-03T19:34:45.893Z,94.00
2022-12-03T19:37:13.363Z,94.03
2022-12-03T19:39:41.186Z,94.49
2022-12-03T19:42:10.053Z,94.93
2022-12-03T19:44:37.621Z,94.80
2022-12-03T19:47:05.175Z,94.80
2022-12-03T19:49:32.547Z,94.66
2022-12-03T19:52:00.038Z,94.62
2022-12-03T19:54:27.281Z,94.83
2022-12-03T19:56:54.792Z,94.75
2022-12-03T19:59:21.975Z,94.59
2022-12-03T20:01:49.602Z,94.49
2022-12-03T20:04:17.054Z,94.53
2022-12-03T20:06:45.521Z,94.56
2022-12-03T20:09:17.961Z,94.22
2022-12-03T20:11:46.183Z,93.86
2022-12-03T20:14:17.575Z,94.21
2022-12-03T20:16:45.626Z,94.22
2022-12-03T20:19:16.362Z,94.66
2022-12-03T20:21:44.904Z,94.58
2022-12-03T20:24:18.145Z,94.63
2022-12-03T20:26:45.784Z,94.97
2022-12-03T20:29:13.270Z,95.12
2022-12-03T20:31:41.000Z,95.44
2022-12-03T20:34:08.326Z,95.18
2022-12-03T20:36:36.117Z,95.14
2022-12-03T20:39:07.516Z,96.18
2022-12-03T20:41:36.997Z,96.33
2022-12-03T20:44:07.649Z,96.22
2022-12-03T20:46:36.296Z,96.07
2022-12-03T20:49:04.314Z,95.96
2022-12-03T20:51:32.196Z,95.33
2022-12-03T20:54:01.321Z,95.57
2022-12-03T20:56:35.907Z,95.89
2022-12-03T20:59:07.195Z,96.03
2022-12-03T21:01:36.413Z,95.80
2022-12-03T21:04:05.497Z,95.68
2022-12-03T21:06:36.204Z,96.10
2022-12-03T21:09:06.932Z,95.93
2022-12-03T21:11:36.213Z,96.05
2022-12-03T21:14:05.117Z,96.16
2022-12-03T21:17:07.898Z,96.28
2022-12-03T21:19:24.865Z,95.97
2022-12-03T21:21:52.594Z,96.09
2022-12-03T21:24:20.017Z,95.75
2022-12-03T21:26:47.660Z,95.89
2022-12-03T21:29:15.046Z,95.63
2022-12-03T21:31:42.864Z,95.58
2022-12-03T21:34:11.278Z,95.85
2022-12-03T21:36:39.672Z,95.68
2022-12-03T21:39:08.058Z,95.44
2022-12-03T21:41:35.677Z,95.32
2022-12-03T21:44:03.938Z,95.32
2022-12-03T21:47:12.689Z,95.29
2022-12-03T21:49:20.902Z,95.28
2022-12-03T21:51:49.065Z,95.27
2022-12-03T21:54:16.693Z,95.40
2022-12-03T21:56:44.408Z,95.74
2022-12-03T21:59:11.775Z,95.86
2022-12-03T22:01:42.894Z,95.81
2022-12-03T22:04:14.117Z,95.79
2022-12-03T22:06:41.992Z,95.65
2022-12-03T22:09:09.259Z,95.39
2022-12-03T22:11:36.936Z,95.41
2022-12-03T22:14:06.897Z,95.48
2022-12-03T22:16:34.741Z,95.53
2022-12-03T22:19:02.290Z,95.96
2022-12-03T22:21:30.665Z,96.42
2022-12-03T22:23:59.059Z,96.89
2022-12-03T22:26:27.290Z,96.82
2022-12-03T22:28:55.245Z,96.60
2022-12-03T22:31:27.411Z,96.30
2022-12-03T22:33:57.434Z,96.20
2022-12-03T22:36:24.968Z,96.18
2022-12-03T22:38:52.246Z,96.68
2022-12-03T22:41:20.590Z,96.04
2022-12-03T22:43:49.704Z,96.08
2022-12-03T22:46:17.640Z,95.98
2022-12-03T22:48:47.549Z,96.08
2022-12-03T22:51:21.361Z,96.17
2022-12-03T22:53:55.045Z,96.04
2022-12-03T22:56:22.818Z,95.96
2022-12-03T22:58:52.819Z,95.51
2022-12-03T23:01:26.871Z,95.31
2022-12-03T23:03:55.053Z,95.69
2022-12-03T23:06:24.202Z,95.83
2022-12-03T23:08:52.397Z,95.83
2022-12-03T23:11:20.538Z,95.56
2022-12-03T23:13:49.197Z,95.36
2022-12-03T23:16:24.752Z,95.51
2022-12-03T23:18:53.273Z,95.67
2022-12-03T23:21:29.968Z,95.73
2022-12-03T23:24:00.067Z,95.56
2022-12-03T23:26:29.025Z,95.58
2022-12-03T23:28:56.638Z,95.48
2022-12-03T23:31:31.422Z,95.35
2022-12-03T23:33:59.943Z,95.42
2022-12-03T23:36:31.757Z,95.32
2022-12-03T23:38:59.005Z,95.30
2022-12-03T23:41:31.584Z,95.22
2022-12-03T23:43:58.819Z,95.55
2022-12-03T23:46:28.166Z,95.62
2022-12-03T23:48:56.201Z,95.98
2022-12-03T23:51:25.654Z,95.58
2022-12-03T23:53:54.806Z,95.58
2022-12-03T23:56:28.122Z,95.65
2022-12-03T23:58:56.019Z,95.77
